MMVA/VSA METAR and TAF weather

Enter ICAO airport designator
Station Type Date Time Source
MMVA METAR 2020/07/09 15:43 UTC NOAA

MMVA 091543Z 10005KT 4SM SCT040 SCT120 31/24 A2991 RMK 8/420


Station Type Date Time Source
MMVA Decoded METAR 2020/07/09 15:43 UTC NOAA

Villahermosa , Mexico (MMVA) 18-00N 092-49W
Jul 09, 2020 - 11:43 AM EDT / 2020.07.09 1543 UTC
Wind: from the E (100 degrees) at 6 MPH (5 KT):0
Visibility: 4 mile(s):0
Sky conditions: partly cloudy
Temperature: 87 F (31 C)
Heat index: 95.7 F (35.4 C):1
Dew Point: 75 F (24 C)
Relative Humidity: 66%
Pressure (altimeter): 29.91 in. Hg (1012 hPa)
ob: MMVA 091543Z 10005KT 4SM SCT040 SCT120 31/24 A2991 RMK 8/420
cycle: 15

Station Type Date Time Source
MMVA TAF 2020/07/09 06:09 UTC NOAA

TAF MMVA 090508Z 0906/1006 00000KT 6SM HZ BKN200
TEMPO 0910/0914 5SM HZ BKN020
FM091700 09010KT P6SM SCT020 BKN200
FM100100 05005KT P6SM BKN200

Example: see airport list